Fruitland, Idaho
Current Conditions -  °F | °C
As of 3:53 PM on Wednesday 26 Nov 2014 (Local Time) from KONO Reporting Station
Clear Clear  
Wind Chill: 53°   Ceiling: Unl
Heat Index: 53°   Visibility: 10mi
Dew Point: 41°   Wind: 3mph
Humidity: 64%   Direction: 360°N
Pressure: 30.26"   Gusts: NA
Location:  44.01°N, 116.92°W
Report Text: KONO 262253Z AUTO 36003KT 10SM CLR 12/05 A3026 RMK AO2 SLP256 T01170050
Loading
Personal Weather Stations






























Interactive Weather Map New forecast layout! Learn more

10-Day Weather Forecast

Advertisements
Track Severe Weather on mobile